sensor_id;sensor_type;location;lat;lon;timestamp;pressure;altitude;pressure_sealevel;temperature;humidity
20987;BME280;10652;50.306;8.570;2023-04-07T00:02:42;97890.16;;;5.71;100.00
20987;BME280;10652;50.306;8.570;2023-04-07T00:06:45;97898.69;;;5.76;100.00
20987;BME280;10652;50.306;8.570;2023-04-07T00:10:47;97882.97;;;5.78;100.00
20987;BME280;10652;50.306;8.570;2023-04-07T00:14:49;97884.81;;;5.76;100.00
20987;BME280;10652;50.306;8.570;2023-04-07T00:18:51;97888.28;;;5.75;100.00
20987;BME280;10652;50.306;8.570;2023-04-07T00:22:53;97882.34;;;5.71;100.00
20987;BME280;10652;50.306;8.570;2023-04-07T00:26:55;97876.31;;;5.69;100.00
20987;BME280;10652;50.306;8.570;2023-04-07T00:30:58;97864.94;;;5.72;100.00
20987;BME280;10652;50.306;8.570;2023-04-07T00:35:00;97869.31;;;5.71;100.00
20987;BME280;10652;50.306;8.570;2023-04-07T00:39:03;97869.19;;;5.74;100.00
20987;BME280;10652;50.306;8.570;2023-04-07T00:43:05;97859.66;;;5.73;100.00
20987;BME280;10652;50.306;8.570;2023-04-07T00:47:07;97849.38;;;5.69;100.00
20987;BME280;10652;50.306;8.570;2023-04-07T00:51:09;97839.91;;;5.66;100.00
20987;BME280;10652;50.306;8.570;2023-04-07T00:55:12;97838.91;;;5.70;100.00
20987;BME280;10652;50.306;8.570;2023-04-07T00:59:14;97828.50;;;5.70;100.00
20987;BME280;10652;50.306;8.570;2023-04-07T01:03:24;97832.72;;;5.74;100.00
20987;BME280;10652;50.306;8.570;2023-04-07T01:07:34;97830.09;;;5.74;100.00
20987;BME280;10652;50.306;8.570;2023-04-07T01:12:01;97819.56;;;5.77;100.00
20987;BME280;10652;50.306;8.570;2023-04-07T01:16:14;97820.56;;;5.73;100.00
20987;BME280;10652;50.306;8.570;2023-04-07T01:20:22;97824.00;;;5.75;100.00
20987;BME280;10652;50.306;8.570;2023-04-07T01:29:25;97812.81;;;5.72;100.00
20987;BME280;10652;50.306;8.570;2023-04-07T01:33:30;97805.91;;;5.71;100.00
20987;BME280;10652;50.306;8.570;2023-04-07T01:37:33;97804.06;;;5.73;100.00
20987;BME280;10652;50.306;8.570;2023-04-07T01:41:37;97803.34;;;5.69;100.00
20987;BME280;10652;50.306;8.570;2023-04-07T01:45:40;97796.34;;;5.71;100.00
20987;BME280;10652;50.306;8.570;2023-04-07T01:49:44;97799.72;;;5.73;100.00
20987;BME280;10652;50.306;8.570;2023-04-07T01:53:48;97797.03;;;5.76;100.00
20987;BME280;10652;50.306;8.570;2023-04-07T01:57:52;97793.63;;;5.74;100.00
20987;BME280;10652;50.306;8.570;2023-04-07T02:01:54;97788.44;;;5.73;100.00
20987;BME280;10652;50.306;8.570;2023-04-07T02:06:00;97796.34;;;5.71;100.00
20987;BME280;10652;50.306;8.570;2023-04-07T02:10:07;97792.16;;;5.66;100.00
20987;BME280;10652;50.306;8.570;2023-04-07T02:14:12;97779.16;;;5.64;100.00
20987;BME280;10652;50.306;8.570;2023-04-07T02:18:29;97782.69;;;5.63;100.00
20987;BME280;10652;50.306;8.570;2023-04-07T02:22:33;97782.69;;;5.63;100.00
20987;BME280;10652;50.306;8.570;2023-04-07T02:26:35;97777.50;;;5.63;100.00
20987;BME280;10652;50.306;8.570;2023-04-07T02:30:38;97781.06;;;5.59;100.00
20987;BME280;10652;50.306;8.570;2023-04-07T02:34:40;97780.13;;;5.62;100.00
20987;BME280;10652;50.306;8.570;2023-04-07T02:38:43;97774.88;;;5.63;100.00
20987;BME280;10652;50.306;8.570;2023-04-07T02:42:45;97773.88;;;5.67;100.00
20987;BME280;10652;50.306;8.570;2023-04-07T02:46:48;97777.38;;;5.66;100.00
20987;BME280;10652;50.306;8.570;2023-04-07T02:50:50;97777.19;;;5.72;100.00
20987;BME280;10652;50.306;8.570;2023-04-07T02:54:52;97778.09;;;5.71;100.00
20987;BME280;10652;50.306;8.570;2023-04-07T02:58:58;97772.06;;;5.69;100.00
20987;BME280;10652;50.306;8.570;2023-04-07T03:03:01;97773.88;;;5.67;100.00
20987;BME280;10652;50.306;8.570;2023-04-07T03:07:06;97772.16;;;5.66;100.00
20987;BME280;10652;50.306;8.570;2023-04-07T03:11:08;97770.56;;;5.62;100.00
20987;BME280;10652;50.306;8.570;2023-04-07T03:15:10;97768.84;;;5.61;100.00
20987;BME280;10652;50.306;8.570;2023-04-07T03:19:17;97761.84;;;5.63;100.00
20987;BME280;10652;50.306;8.570;2023-04-07T03:23:23;97760.94;;;5.64;100.00
20987;BME280;10652;50.306;8.570;2023-04-07T03:27:25;97767.00;;;5.65;100.00
20987;BME280;10652;50.306;8.570;2023-04-07T03:31:28;97755.69;;;5.66;100.00
20987;BME280;10652;50.306;8.570;2023-04-07T03:35:31;97758.31;;;5.64;100.00
20987;BME280;10652;50.306;8.570;2023-04-07T03:39:33;97753.03;;;5.67;100.00
20987;BME280;10652;50.306;8.570;2023-04-07T03:43:45;97756.56;;;5.65;100.00
20987;BME280;10652;50.306;8.570;2023-04-07T03:47:48;97749.72;;;5.62;100.00
20987;BME280;10652;50.306;8.570;2023-04-07T03:51:51;97753.13;;;5.64;100.00
20987;BME280;10652;50.306;8.570;2023-04-07T03:55:54;97753.94;;;5.66;100.00
20987;BME280;10652;50.306;8.570;2023-04-07T04:00:13;97752.09;;;5.68;100.00
20987;BME280;10652;50.306;8.570;2023-04-07T04:04:21;97754.78;;;5.67;100.00
20987;BME280;10652;50.306;8.570;2023-04-07T04:08:26;97745.25;;;5.66;100.00
20987;BME280;10652;50.306;8.570;2023-04-07T04:12:28;97749.59;;;5.65;100.00
20987;BME280;10652;50.306;8.570;2023-04-07T04:16:38;97750.50;;;5.64;100.00
20987;BME280;10652;50.306;8.570;2023-04-07T04:20:54;97751.28;;;5.68;100.00
20987;BME280;10652;50.306;8.570;2023-04-07T04:24:58;97740.03;;;5.66;100.00
20987;BME280;10652;50.306;8.570;2023-04-07T04:29:01;97741.69;;;5.68;100.00
20987;BME280;10652;50.306;8.570;2023-04-07T04:33:05;97746.00;;;5.69;100.00
20987;BME280;10652;50.306;8.570;2023-04-07T04:37:16;97741.53;;;5.73;100.00
20987;BME280;10652;50.306;8.570;2023-04-07T04:41:20;97749.44;;;5.71;100.00
20987;BME280;10652;50.306;8.570;2023-04-07T04:45:24;97763.25;;;5.73;100.00
20987;BME280;10652;50.306;8.570;2023-04-07T04:49:26;97759.00;;;5.71;100.00
20987;BME280;10652;50.306;8.570;2023-04-07T04:53:32;97759.03;;;5.69;100.00
20987;BME280;10652;50.306;8.570;2023-04-07T04:57:36;97765.94;;;5.70;100.00
20987;BME280;10652;50.306;8.570;2023-04-07T05:01:43;97763.47;;;5.67;100.00
20987;BME280;10652;50.306;8.570;2023-04-07T05:05:49;97760.16;;;5.62;100.00
20987;BME280;10652;50.306;8.570;2023-04-07T05:09:55;97754.81;;;5.65;100.00
20987;BME280;10652;50.306;8.570;2023-04-07T05:13:58;97755.56;;;5.69;100.00
20987;BME280;10652;50.306;8.570;2023-04-07T05:18:00;97755.63;;;5.67;100.00
20987;BME280;10652;50.306;8.570;2023-04-07T05:22:03;97762.59;;;5.67;100.00
20987;BME280;10652;50.306;8.570;2023-04-07T05:26:10;97761.75;;;5.66;100.00
20987;BME280;10652;50.306;8.570;2023-04-07T05:30:14;97769.59;;;5.65;100.00
20987;BME280;10652;50.306;8.570;2023-04-07T05:34:16;97765.13;;;5.68;100.00
20987;BME280;10652;50.306;8.570;2023-04-07T05:38:24;97762.44;;;5.71;100.00
20987;BME280;10652;50.306;8.570;2023-04-07T05:42:31;97770.19;;;5.73;100.00
20987;BME280;10652;50.306;8.570;2023-04-07T05:46:33;97768.38;;;5.76;100.00
20987;BME280;10652;50.306;8.570;2023-04-07T05:50:35;97770.13;;;5.76;100.00
20987;BME280;10652;50.306;8.570;2023-04-07T05:54:41;97770.97;;;5.76;100.00
20987;BME280;10652;50.306;8.570;2023-04-07T05:58:45;97768.31;;;5.78;100.00
20987;BME280;10652;50.306;8.570;2023-04-07T06:02:49;97769.13;;;5.80;100.00
20987;BME280;10652;50.306;8.570;2023-04-07T06:06:54;97768.06;;;5.85;100.00
20987;BME280;10652;50.306;8.570;2023-04-07T06:10:56;97759.13;;;5.92;100.00
20987;BME280;10652;50.306;8.570;2023-04-07T06:14:58;97765.06;;;5.97;100.00
20987;BME280;10652;50.306;8.570;2023-04-07T06:19:01;97764.03;;;6.01;100.00
20987;BME280;10652;50.306;8.570;2023-04-07T06:23:03;97769.00;;;6.09;100.00
20987;BME280;10652;50.306;8.570;2023-04-07T06:27:06;97767.25;;;6.10;100.00
20987;BME280;10652;50.306;8.570;2023-04-07T06:31:08;97772.41;;;6.11;100.00
20987;BME280;10652;50.306;8.570;2023-04-07T06:35:11;97768.06;;;6.12;100.00
20987;BME280;10652;50.306;8.570;2023-04-07T06:39:13;97775.75;;;6.15;100.00
20987;BME280;10652;50.306;8.570;2023-04-07T06:43:16;97777.44;;;6.17;100.00
20987;BME280;10652;50.306;8.570;2023-04-07T06:47:25;97789.41;;;6.23;100.00
20987;BME280;10652;50.306;8.570;2023-04-07T06:51:27;97792.84;;;6.23;100.00
20987;BME280;10652;50.306;8.570;2023-04-07T06:55:29;97789.41;;;6.23;100.00
20987;BME280;10652;50.306;8.570;2023-04-07T06:59:31;97793.72;;;6.24;100.00
20987;BME280;10652;50.306;8.570;2023-04-07T07:03:33;97777.91;;;6.28;100.00
20987;BME280;10652;50.306;8.570;2023-04-07T07:07:36;97788.06;;;6.37;100.00
20987;BME280;10652;50.306;8.570;2023-04-07T07:11:38;97790.47;;;6.43;100.00
20987;BME280;10652;50.306;8.570;2023-04-07T07:15:41;97785.94;;;6.48;100.00
20987;BME280;10652;50.306;8.570;2023-04-07T07:19:43;97788.41;;;6.53;100.00
20987;BME280;10652;50.306;8.570;2023-04-07T07:23:45;97791.84;;;6.54;100.00
20987;BME280;10652;50.306;8.570;2023-04-07T07:27:48;97794.50;;;6.52;100.00
20987;BME280;10652;50.306;8.570;2023-04-07T07:31:54;97797.75;;;6.59;100.00
20987;BME280;10652;50.306;8.570;2023-04-07T07:35:57;97800.97;;;6.67;100.00
20987;BME280;10652;50.306;8.570;2023-04-07T07:39:59;97802.44;;;6.74;100.00
20987;BME280;10652;50.306;8.570;2023-04-07T07:44:01;97807.81;;;6.69;100.00
20987;BME280;10652;50.306;8.570;2023-04-07T07:48:03;97805.03;;;6.74;100.00
20987;BME280;10652;50.306;8.570;2023-04-07T07:52:05;97818.06;;;6.75;100.00
20987;BME280;10652;50.306;8.570;2023-04-07T07:56:10;97808.38;;;6.77;100.00
20987;BME280;10652;50.306;8.570;2023-04-07T08:00:12;97817.75;;;6.83;100.00
20987;BME280;10652;50.306;8.570;2023-04-07T08:04:14;97819.34;;;6.87;100.00
20987;BME280;10652;50.306;8.570;2023-04-07T08:08:17;97826.44;;;6.83;100.00
20987;BME280;10652;50.306;8.570;2023-04-07T08:12:20;97827.25;;;6.85;100.00
20987;BME280;10652;50.306;8.570;2023-04-07T08:16:23;97830.44;;;6.93;100.00
20987;BME280;10652;50.306;8.570;2023-04-07T08:20:28;97833.75;;;6.99;100.00
20987;BME280;10652;50.306;8.570;2023-04-07T08:24:30;97830.19;;;7.00;100.00
20987;BME280;10652;50.306;8.570;2023-04-07T08:28:32;97840.22;;;7.12;100.00
20987;BME280;10652;50.306;8.570;2023-04-07T08:32:41;97839.16;;;7.17;100.00
20987;BME280;10652;50.306;8.570;2023-04-07T08:36:43;97837.97;;;7.26;100.00
20987;BME280;10652;50.306;8.570;2023-04-07T08:40:47;97842.84;;;7.35;100.00
20987;BME280;10652;50.306;8.570;2023-04-07T08:44:51;97840.91;;;7.40;100.00
20987;BME280;10652;50.306;8.570;2023-04-07T08:48:55;97851.03;;;7.49;100.00
20987;BME280;10652;50.306;8.570;2023-04-07T08:52:59;97846.41;;;7.56;100.00
20987;BME280;10652;50.306;8.570;2023-04-07T08:57:02;97846.34;;;7.57;100.00
20987;BME280;10652;50.306;8.570;2023-04-07T09:01:04;97853.94;;;7.63;100.00
20987;BME280;10652;50.306;8.570;2023-04-07T09:05:08;97856.72;;;7.59;100.00
20987;BME280;10652;50.306;8.570;2023-04-07T09:09:10;97857.59;;;7.59;100.00
20987;BME280;10652;50.306;8.570;2023-04-07T09:13:12;97859.25;;;7.62;100.00
20987;BME280;10652;50.306;8.570;2023-04-07T09:17:14;97869.75;;;7.60;100.00
20987;BME280;10652;50.306;8.570;2023-04-07T09:21:16;97871.31;;;7.64;100.00
20987;BME280;10652;50.306;8.570;2023-04-07T09:25:23;97876.34;;;7.70;100.00
20987;BME280;10652;50.306;8.570;2023-04-07T09:29:27;97873.84;;;7.67;100.00
20987;BME280;10652;50.306;8.570;2023-04-07T09:33:29;97878.28;;;7.65;100.00
20987;BME280;10652;50.306;8.570;2023-04-07T09:37:31;97876.81;;;7.58;100.00
20987;BME280;10652;50.306;8.570;2023-04-07T09:41:33;97880.06;;;7.63;100.00
20987;BME280;10652;50.306;8.570;2023-04-07T09:45:35;97884.22;;;7.69;100.00
20987;BME280;10652;50.306;8.570;2023-04-07T09:49:49;97879.63;;;7.75;100.00
20987;BME280;10652;50.306;8.570;2023-04-07T09:53:53;97881.09;;;7.82;100.00
20987;BME280;10652;50.306;8.570;2023-04-07T09:57:55;97876.56;;;7.86;100.00
20987;BME280;10652;50.306;8.570;2023-04-07T10:01:58;97884.16;;;7.94;100.00
20987;BME280;10652;50.306;8.570;2023-04-07T10:06:02;97886.50;;;8.00;100.00
20987;BME280;10652;50.306;8.570;2023-04-07T10:10:05;97883.97;;;7.98;100.00
20987;BME280;10652;50.306;8.570;2023-04-07T10:14:09;97884.56;;;8.05;100.00
20987;BME280;10652;50.306;8.570;2023-04-07T10:18:12;97893.16;;;8.08;100.00
20987;BME280;10652;50.306;8.570;2023-04-07T10:22:16;97891.00;;;8.19;100.00
20987;BME280;10652;50.306;8.570;2023-04-07T10:26:22;97892.91;;;8.36;100.00
20987;BME280;10652;50.306;8.570;2023-04-07T10:30:29;97898.41;;;8.30;99.73
20987;BME280;10652;50.306;8.570;2023-04-07T10:43:09;97909.28;;;8.41;98.39
20987;BME280;10652;50.306;8.570;2023-04-07T10:47:12;97915.50;;;8.39;98.11
20987;BME280;10652;50.306;8.570;2023-04-07T10:51:15;97924.94;;;8.43;98.67
20987;BME280;10652;50.306;8.570;2023-04-07T10:55:38;97923.56;;;8.34;98.31
20987;BME280;10652;50.306;8.570;2023-04-07T11:04:11;97926.94;;;8.36;98.69
20987;BME280;10652;50.306;8.570;2023-04-07T11:08:13;97929.13;;;8.47;98.50
20987;BME280;10652;50.306;8.570;2023-04-07T11:12:23;97938.16;;;8.61;97.82
20987;BME280;10652;50.306;8.570;2023-04-07T11:16:35;97934.16;;;8.73;96.44
20987;BME280;10652;50.306;8.570;2023-04-07T11:24:46;97936.97;;;8.68;96.08
20987;BME280;10652;50.306;8.570;2023-04-07T11:28:51;97941.63;;;8.82;96.10
20987;BME280;10652;50.306;8.570;2023-04-07T11:32:54;97940.63;;;8.64;93.22
20987;BME280;10652;50.306;8.570;2023-04-07T11:36:58;97941.63;;;8.62;95.05
20987;BME280;10652;50.306;8.570;2023-04-07T11:41:19;97945.19;;;8.59;94.19
20987;BME280;10652;50.306;8.570;2023-04-07T11:45:22;97948.53;;;8.63;95.88
20987;BME280;10652;50.306;8.570;2023-04-07T11:49:26;97952.06;;;8.84;96.99
20987;BME280;10652;50.306;8.570;2023-04-07T11:53:36;97953.66;;;9.08;95.43
20987;BME280;10652;50.306;8.570;2023-04-07T11:57:41;97951.47;;;9.18;94.68
20987;BME280;10652;50.306;8.570;2023-04-07T12:01:43;97954.69;;;9.24;93.21
20987;BME280;10652;50.306;8.570;2023-04-07T12:05:46;97966.09;;;9.23;90.92
20987;BME280;10652;50.306;8.570;2023-04-07T12:09:48;97960.59;;;9.29;91.09
20987;BME280;10652;50.306;8.570;2023-04-07T12:13:50;97963.88;;;9.34;90.00
20987;BME280;10652;50.306;8.570;2023-04-07T12:17:53;97966.78;;;9.27;89.08
20987;BME280;10652;50.306;8.570;2023-04-07T12:21:56;97975.91;;;9.38;90.11
20987;BME280;10652;50.306;8.570;2023-04-07T12:25:58;97968.00;;;9.20;87.53
20987;BME280;10652;50.306;8.570;2023-04-07T12:30:00;97975.78;;;9.01;86.69
20987;BME280;10652;50.306;8.570;2023-04-07T12:34:02;97966.88;;;9.05;88.00
20987;BME280;10652;50.306;8.570;2023-04-07T12:38:04;97972.25;;;9.42;88.91
20987;BME280;10652;50.306;8.570;2023-04-07T12:42:06;97974.88;;;9.81;88.53
20987;BME280;10652;50.306;8.570;2023-04-07T12:46:12;97968.03;;;10.35;87.26
20987;BME280;10652;50.306;8.570;2023-04-07T12:50:14;97973.19;;;10.55;84.05
20987;BME280;10652;50.306;8.570;2023-04-07T12:54:16;97972.97;;;10.77;82.73
20987;BME280;10652;50.306;8.570;2023-04-07T12:58:19;97970.69;;;10.88;81.20
20987;BME280;10652;50.306;8.570;2023-04-07T13:02:21;97973.94;;;10.93;80.24
20987;BME280;10652;50.306;8.570;2023-04-07T13:06:23;97973.75;;;10.79;80.74
20987;BME280;10652;50.306;8.570;2023-04-07T13:10:26;97980.53;;;10.11;77.68
20987;BME280;10652;50.306;8.570;2023-04-07T13:14:28;97981.94;;;9.40;82.08
20987;BME280;10652;50.306;8.570;2023-04-07T13:18:30;97984.69;;;8.97;84.33
20987;BME280;10652;50.306;8.570;2023-04-07T13:22:32;97985.06;;;8.88;87.69
20987;BME280;10652;50.306;8.570;2023-04-07T13:26:36;97980.56;;;8.69;89.70
20987;BME280;10652;50.306;8.570;2023-04-07T13:30:38;97973.75;;;8.65;89.35
20987;BME280;10652;50.306;8.570;2023-04-07T13:34:41;97974.97;;;8.79;90.42
20987;BME280;10652;50.306;8.570;2023-04-07T13:38:43;97986.31;;;8.99;91.21
20987;BME280;10652;50.306;8.570;2023-04-07T13:42:45;97980.00;;;9.25;88.23
20987;BME280;10652;50.306;8.570;2023-04-07T13:46:47;97990.34;;;9.28;86.91
20987;BME280;10652;50.306;8.570;2023-04-07T13:50:49;97985.28;;;9.24;87.98
20987;BME280;10652;50.306;8.570;2023-04-07T13:54:52;97981.75;;;9.25;86.14
20987;BME280;10652;50.306;8.570;2023-04-07T13:58:54;97988.88;;;9.41;88.72
20987;BME280;10652;50.306;8.570;2023-04-07T14:02:56;97988.91;;;9.21;87.08
20987;BME280;10652;50.306;8.570;2023-04-07T14:06:58;97988.72;;;9.04;85.30
20987;BME280;10652;50.306;8.570;2023-04-07T14:11:01;97986.25;;;9.01;87.51
20987;BME280;10652;50.306;8.570;2023-04-07T14:15:04;97992.97;;;9.08;87.33
20987;BME280;10652;50.306;8.570;2023-04-07T14:19:07;97987.72;;;9.08;86.49
20987;BME280;10652;50.306;8.570;2023-04-07T14:23:09;97989.63;;;9.25;89.32
20987;BME280;10652;50.306;8.570;2023-04-07T14:27:11;97996.56;;;9.26;87.36
20987;BME280;10652;50.306;8.570;2023-04-07T14:31:15;97999.91;;;9.29;87.93
20987;BME280;10652;50.306;8.570;2023-04-07T14:35:17;97991.25;;;9.27;87.35
20987;BME280;10652;50.306;8.570;2023-04-07T14:39:20;97998.44;;;9.22;84.69
20987;BME280;10652;50.306;8.570;2023-04-07T14:43:23;97985.63;;;9.16;85.90
20987;BME280;10652;50.306;8.570;2023-04-07T14:47:25;97995.78;;;9.24;87.76
20987;BME280;10652;50.306;8.570;2023-04-07T14:51:28;97989.28;;;9.12;85.84
20987;BME280;10652;50.306;8.570;2023-04-07T14:55:31;97998.97;;;8.90;87.43
20987;BME280;10652;50.306;8.570;2023-04-07T14:59:33;97988.97;;;8.78;90.23
20987;BME280;10652;50.306;8.570;2023-04-07T15:03:35;97995.53;;;8.88;92.92
20987;BME280;10652;50.306;8.570;2023-04-07T15:07:37;98005.06;;;8.68;92.21
20987;BME280;10652;50.306;8.570;2023-04-07T15:11:39;98007.97;;;8.39;93.36
20987;BME280;10652;50.306;8.570;2023-04-07T15:15:42;98007.03;;;8.18;93.98
20987;BME280;10652;50.306;8.570;2023-04-07T15:19:44;98013.72;;;8.02;90.86
20987;BME280;10652;50.306;8.570;2023-04-07T15:23:46;98021.00;;;7.94;92.30
20987;BME280;10652;50.306;8.570;2023-04-07T15:27:48;98017.06;;;7.82;94.54
20987;BME280;10652;50.306;8.570;2023-04-07T15:31:50;98026.78;;;7.79;96.09
20987;BME280;10652;50.306;8.570;2023-04-07T15:35:52;98020.59;;;7.81;97.28
20987;BME280;10652;50.306;8.570;2023-04-07T15:39:55;98026.13;;;7.97;99.26
20987;BME280;10652;50.306;8.570;2023-04-07T15:44:00;98023.41;;;8.23;100.00
20987;BME280;10652;50.306;8.570;2023-04-07T15:48:02;98020.75;;;8.47;99.09
20987;BME280;10652;50.306;8.570;2023-04-07T15:52:04;98025.22;;;8.66;97.59
20987;BME280;10652;50.306;8.570;2023-04-07T15:56:07;98023.75;;;8.81;96.04
20987;BME280;10652;50.306;8.570;2023-04-07T16:00:09;98022.09;;;8.79;93.94
20987;BME280;10652;50.306;8.570;2023-04-07T16:04:12;98036.25;;;8.75;94.30
20987;BME280;10652;50.306;8.570;2023-04-07T16:08:14;98036.28;;;8.73;93.40
20987;BME280;10652;50.306;8.570;2023-04-07T16:12:16;98037.88;;;8.55;94.28
20987;BME280;10652;50.306;8.570;2023-04-07T16:16:19;98046.81;;;8.50;93.45
20987;BME280;10652;50.306;8.570;2023-04-07T16:20:21;98049.31;;;8.31;94.42
20987;BME280;10652;50.306;8.570;2023-04-07T16:24:23;98052.03;;;8.28;94.94
20987;BME280;10652;50.306;8.570;2023-04-07T16:28:25;98054.59;;;8.30;95.87
20987;BME280;10652;50.306;8.570;2023-04-07T16:32:27;98050.72;;;8.40;95.07
20987;BME280;10652;50.306;8.570;2023-04-07T16:36:29;98046.13;;;8.45;96.02
20987;BME280;10652;50.306;8.570;2023-04-07T16:40:33;98053.34;;;8.61;96.49
20987;BME280;10652;50.306;8.570;2023-04-07T16:44:34;98050.47;;;8.67;95.57
20987;BME280;10652;50.306;8.570;2023-04-07T16:48:37;98053.91;;;8.69;93.52
20987;BME280;10652;50.306;8.570;2023-04-07T16:52:39;98065.59;;;8.61;92.84
20987;BME280;10652;50.306;8.570;2023-04-07T16:56:41;98063.38;;;8.50;93.32
20987;BME280;10652;50.306;8.570;2023-04-07T17:00:43;98066.91;;;8.49;92.77
20987;BME280;10652;50.306;8.570;2023-04-07T17:04:45;98073.66;;;8.33;91.19
20987;BME280;10652;50.306;8.570;2023-04-07T17:08:47;98073.44;;;8.16;90.78
20987;BME280;10652;50.306;8.570;2023-04-07T17:12:49;98074.41;;;8.12;91.69
20987;BME280;10652;50.306;8.570;2023-04-07T17:16:56;98070.69;;;8.19;91.92
20987;BME280;10652;50.306;8.570;2023-04-07T17:20:58;98074.00;;;8.24;92.76
20987;BME280;10652;50.306;8.570;2023-04-07T17:25:00;98085.66;;;8.14;91.22
20987;BME280;10652;50.306;8.570;2023-04-07T17:29:02;98088.53;;;8.08;92.21
20987;BME280;10652;50.306;8.570;2023-04-07T17:33:04;98088.09;;;7.95;93.37
20987;BME280;10652;50.306;8.570;2023-04-07T17:37:09;98105.66;;;7.92;94.41
20987;BME280;10652;50.306;8.570;2023-04-07T17:41:11;98114.53;;;7.88;95.29
20987;BME280;10652;50.306;8.570;2023-04-07T17:45:13;98111.00;;;7.89;95.97
20987;BME280;10652;50.306;8.570;2023-04-07T17:49:15;98116.34;;;7.86;96.07
20987;BME280;10652;50.306;8.570;2023-04-07T17:53:17;98116.69;;;7.76;96.04
20987;BME280;10652;50.306;8.570;2023-04-07T17:57:20;98120.41;;;7.69;96.53
20987;BME280;10652;50.306;8.570;2023-04-07T18:01:22;98117.50;;;7.52;96.48
20987;BME280;10652;50.306;8.570;2023-04-07T18:05:25;98131.00;;;7.40;97.46
20987;BME280;10652;50.306;8.570;2023-04-07T18:09:27;98139.03;;;7.34;98.54
20987;BME280;10652;50.306;8.570;2023-04-07T18:13:29;98147.00;;;7.29;99.00
20987;BME280;10652;50.306;8.570;2023-04-07T18:17:32;98138.50;;;7.23;100.00
20987;BME280;10652;50.306;8.570;2023-04-07T18:21:34;98150.66;;;7.24;100.00
20987;BME280;10652;50.306;8.570;2023-04-07T18:25:36;98158.41;;;7.27;100.00
20987;BME280;10652;50.306;8.570;2023-04-07T18:29:38;98160.13;;;7.28;100.00
20987;BME280;10652;50.306;8.570;2023-04-07T18:33:40;98163.38;;;7.08;99.54
20987;BME280;10652;50.306;8.570;2023-04-07T18:37:42;98172.44;;;6.97;100.00
20987;BME280;10652;50.306;8.570;2023-04-07T18:41:45;98172.56;;;6.92;100.00
20987;BME280;10652;50.306;8.570;2023-04-07T18:45:49;98186.72;;;6.85;100.00
20987;BME280;10652;50.306;8.570;2023-04-07T18:49:51;98188.13;;;6.67;100.00
20987;BME280;10652;50.306;8.570;2023-04-07T18:53:54;98190.00;;;6.62;100.00
20987;BME280;10652;50.306;8.570;2023-04-07T18:57:56;98201.13;;;6.69;100.00
20987;BME280;10652;50.306;8.570;2023-04-07T19:01:58;98196.66;;;6.72;100.00
20987;BME280;10652;50.306;8.570;2023-04-07T19:06:00;98208.66;;;6.79;100.00
20987;BME280;10652;50.306;8.570;2023-04-07T19:10:04;98212.91;;;6.82;100.00
20987;BME280;10652;50.306;8.570;2023-04-07T19:14:06;98215.38;;;6.86;100.00
20987;BME280;10652;50.306;8.570;2023-04-07T19:18:08;98216.03;;;6.95;100.00
20987;BME280;10652;50.306;8.570;2023-04-07T19:22:10;98220.91;;;7.05;100.00
20987;BME280;10652;50.306;8.570;2023-04-07T19:26:13;98222.59;;;7.08;100.00
20987;BME280;10652;50.306;8.570;2023-04-07T19:30:16;98234.09;;;7.01;100.00
20987;BME280;10652;50.306;8.570;2023-04-07T19:34:18;98221.81;;;7.04;100.00
20987;BME280;10652;50.306;8.570;2023-04-07T19:38:20;98225.56;;;6.96;100.00
20987;BME280;10652;50.306;8.570;2023-04-07T19:42:22;98226.03;;;6.80;100.00
20987;BME280;10652;50.306;8.570;2023-04-07T19:46:26;98233.13;;;6.75;100.00
20987;BME280;10652;50.306;8.570;2023-04-07T19:50:29;98220.88;;;6.77;100.00
20987;BME280;10652;50.306;8.570;2023-04-07T19:54:31;98235.59;;;6.80;100.00
20987;BME280;10652;50.306;8.570;2023-04-07T19:58:33;98239.88;;;6.82;100.00
20987;BME280;10652;50.306;8.570;2023-04-07T20:02:36;98233.84;;;6.80;100.00
20987;BME280;10652;50.306;8.570;2023-04-07T20:06:38;98238.25;;;6.78;100.00
20987;BME280;10652;50.306;8.570;2023-04-07T20:10:41;98238.25;;;6.78;100.00
20987;BME280;10652;50.306;8.570;2023-04-07T20:14:43;98248.69;;;6.78;100.00
20987;BME280;10652;50.306;8.570;2023-04-07T20:18:45;98248.69;;;6.78;100.00
20987;BME280;10652;50.306;8.570;2023-04-07T20:22:49;98248.69;;;6.78;100.00
20987;BME280;10652;50.306;8.570;2023-04-07T20:26:51;98251.22;;;6.81;100.00
20987;BME280;10652;50.306;8.570;2023-04-07T20:30:53;98256.28;;;6.87;100.00
20987;BME280;10652;50.306;8.570;2023-04-07T20:34:56;98257.88;;;6.91;100.00
20987;BME280;10652;50.306;8.570;2023-04-07T20:38:58;98261.34;;;6.92;100.00
20987;BME280;10652;50.306;8.570;2023-04-07T20:43:00;98263.16;;;6.90;100.00
20987;BME280;10652;50.306;8.570;2023-04-07T20:47:09;98262.31;;;6.89;100.00
20987;BME280;10652;50.306;8.570;2023-04-07T20:51:12;98268.53;;;6.85;100.00
20987;BME280;10652;50.306;8.570;2023-04-07T20:55:14;98273.78;;;6.84;100.00
20987;BME280;10652;50.306;8.570;2023-04-07T20:59:16;98269.50;;;6.81;100.00
20987;BME280;10652;50.306;8.570;2023-04-07T21:03:18;98271.66;;;6.67;100.00
20987;BME280;10652;50.306;8.570;2023-04-07T21:07:20;98270.34;;;6.51;100.00
20987;BME280;10652;50.306;8.570;2023-04-07T21:11:22;98263.75;;;6.38;100.00
20987;BME280;10652;50.306;8.570;2023-04-07T21:15:24;98273.69;;;6.22;100.00
20987;BME280;10652;50.306;8.570;2023-04-07T21:19:26;98275.72;;;6.13;100.00
20987;BME280;10652;50.306;8.570;2023-04-07T21:23:29;98267.38;;;5.98;100.00
20987;BME280;10652;50.306;8.570;2023-04-07T21:27:32;98266.78;;;5.86;100.00
20987;BME280;10652;50.306;8.570;2023-04-07T21:31:35;98274.16;;;5.70;100.00
20987;BME280;10652;50.306;8.570;2023-04-07T21:35:37;98274.50;;;5.55;100.00
20987;BME280;10652;50.306;8.570;2023-04-07T21:39:39;98276.75;;;5.33;100.00
20987;BME280;10652;50.306;8.570;2023-04-07T21:43:41;98273.78;;;5.10;100.00
20987;BME280;10652;50.306;8.570;2023-04-07T21:47:43;98279.97;;;5.04;100.00
20987;BME280;10652;50.306;8.570;2023-04-07T21:51:46;98282.78;;;4.95;100.00
20987;BME280;10652;50.306;8.570;2023-04-07T21:55:48;98287.47;;;4.78;100.00